createdAt,value
2022-12-11T00:02:07.402Z,10.40
2022-12-11T00:04:34.026Z,11.15
2022-12-11T00:07:00.589Z,9.33
2022-12-11T00:09:27.275Z,10.45
2022-12-11T00:11:53.867Z,10.60
2022-12-11T00:14:20.558Z,10.38
2022-12-11T00:16:48.553Z,11.18
2022-12-11T00:19:15.838Z,11.13
2022-12-11T00:21:42.392Z,10.13
2022-12-11T00:24:08.997Z,10.75
2022-12-11T00:26:35.530Z,10.05
2022-12-11T00:29:02.126Z,10.60
2022-12-11T00:31:28.707Z,10.97
2022-12-11T00:33:55.362Z,11.27
2022-12-11T00:36:25.498Z,10.93
2022-12-11T00:38:53.754Z,10.27
2022-12-11T00:41:21.315Z,10.85
2022-12-11T00:43:48.364Z,10.53
2022-12-11T00:46:15.086Z,10.13
2022-12-11T00:48:41.726Z,9.95
2022-12-11T00:51:08.497Z,10.07
2022-12-11T00:53:35.098Z,10.02
2022-12-11T00:56:01.649Z,9.87
2022-12-11T00:58:28.445Z,10.27
2022-12-11T01:00:55.122Z,10.35
2022-12-11T01:03:21.782Z,10.38
2022-12-11T01:05:53.415Z,11.05
2022-12-11T01:08:20.073Z,10.30
2022-12-11T01:10:46.901Z,10.60
2022-12-11T01:13:13.459Z,9.55
2022-12-11T01:15:43.716Z,9.75
2022-12-11T01:18:13.492Z,11.10
2022-12-11T01:20:43.280Z,11.03
2022-12-11T01:23:12.965Z,12.40
2022-12-11T01:25:40.079Z,10.50
2022-12-11T01:28:07.451Z,10.57
2022-12-11T01:30:34.605Z,11.15
2022-12-11T01:33:01.358Z,11.73
2022-12-11T01:35:28.229Z,11.40
2022-12-11T01:37:55.056Z,11.35
2022-12-11T01:40:22.460Z,11.93
2022-12-11T01:42:49.108Z,11.52
2022-12-11T01:45:16.617Z,12.00
2022-12-11T01:47:44.201Z,11.38
2022-12-11T01:50:11.433Z,10.93
2022-12-11T01:52:38.265Z,12.80
2022-12-11T01:55:05.464Z,10.63
2022-12-11T01:57:32.333Z,11.73
2022-12-11T01:59:58.878Z,11.48
2022-12-11T02:02:29.483Z,11.18
2022-12-11T02:04:56.322Z,12.32
2022-12-11T02:07:23.513Z,10.45
2022-12-11T02:09:50.120Z,11.17
2022-12-11T02:12:30.690Z,10.30
2022-12-11T02:15:04.418Z,9.77
2022-12-11T02:17:37.969Z,11.18
2022-12-11T02:20:23.662Z,10.82
2022-12-11T02:23:20.200Z,10.90
2022-12-11T02:26:12.303Z,11.25
2022-12-11T02:28:45.637Z,10.75
2022-12-11T02:31:23.823Z,10.43
2022-12-11T02:34:01.525Z,10.65
2022-12-11T02:36:31.823Z,10.90
2022-12-11T02:39:01.471Z,10.82
2022-12-11T02:41:29.937Z,11.52
2022-12-11T02:43:59.123Z,11.65
2022-12-11T02:46:28.340Z,10.43
2022-12-11T02:48:56.439Z,10.73
2022-12-11T02:51:28.307Z,11.60
2022-12-11T02:53:58.200Z,10.95
2022-12-11T02:56:33.564Z,12.00
2022-12-11T02:59:06.163Z,11.05
2022-12-11T03:01:32.822Z,10.73
2022-12-11T03:03:59.518Z,10.63
2022-12-11T03:06:36.287Z,10.65
2022-12-11T03:09:04.570Z,10.75
2022-12-11T03:11:31.101Z,12.23
2022-12-11T03:13:58.012Z,11.27
2022-12-11T03:16:36.031Z,10.90
2022-12-11T03:19:18.089Z,11.63
2022-12-11T03:21:49.552Z,10.52
2022-12-11T03:24:25.605Z,10.68
2022-12-11T03:27:00.988Z,10.47
2022-12-11T03:29:54.000Z,10.43
2022-12-11T03:32:25.397Z,10.82
2022-12-11T03:34:59.751Z,10.82
2022-12-11T03:37:31.332Z,10.60
2022-12-11T03:40:03.211Z,9.63
2022-12-11T03:42:30.651Z,10.27
2022-12-11T03:44:59.948Z,10.43
2022-12-11T03:47:28.786Z,10.13
2022-12-11T03:49:57.124Z,10.32
2022-12-11T03:52:27.370Z,10.53
2022-12-11T03:54:57.775Z,11.20
2022-12-11T03:57:29.219Z,9.95
2022-12-11T03:59:55.958Z,9.73
2022-12-11T04:02:22.556Z,10.63
2022-12-11T04:04:49.197Z,10.43
2022-12-11T04:07:16.190Z,10.55
2022-12-11T04:09:42.815Z,10.00
2022-12-11T04:12:09.375Z,10.73
2022-12-11T04:14:54.511Z,10.43
2022-12-11T04:17:39.589Z,11.00
2022-12-11T04:20:39.664Z,11.30
2022-12-11T04:23:31.838Z,10.45
2022-12-11T04:26:08.388Z,10.80
2022-12-11T04:28:35.681Z,10.52
2022-12-11T04:31:02.657Z,9.50
2022-12-11T04:33:29.642Z,10.00
2022-12-11T04:36:01.005Z,10.68
2022-12-11T04:38:27.843Z,9.43
2022-12-11T04:41:00.415Z,9.80
2022-12-11T04:43:27.758Z,8.87
2022-12-11T04:46:07.198Z,11.07
2022-12-11T04:48:34.602Z,9.90
2022-12-11T04:51:01.103Z,9.00
2022-12-11T04:53:28.077Z,9.90
2022-12-11T04:55:55.082Z,8.93
2022-12-11T04:58:22.710Z,9.70
2022-12-11T05:00:49.271Z,9.18
2022-12-11T05:03:15.849Z,9.10
2022-12-11T05:05:48.672Z,9.35
2022-12-11T05:08:15.384Z,9.03
2022-12-11T05:10:47.120Z,9.15
2022-12-11T05:13:16.465Z,8.15
2022-12-11T05:15:43.059Z,9.35
2022-12-11T05:18:09.598Z,8.88
2022-12-11T05:20:36.173Z,8.50
2022-12-11T05:23:02.800Z,8.88
2022-12-11T05:25:30.905Z,8.75
2022-12-11T05:27:57.723Z,9.27
2022-12-11T05:30:24.253Z,8.27
2022-12-11T05:32:50.835Z,8.87
2022-12-11T05:35:18.580Z,8.77
2022-12-11T05:37:45.182Z,8.98
2022-12-11T05:40:12.774Z,7.95
2022-12-11T05:42:39.292Z,7.82
2022-12-11T05:45:06.486Z,8.20
2022-12-11T05:47:33.060Z,8.20
2022-12-11T05:49:59.603Z,8.18
2022-12-11T05:52:27.374Z,8.13
2022-12-11T05:54:53.908Z,7.75
2022-12-11T05:57:20.451Z,8.30
2022-12-11T05:59:47.271Z,8.75
2022-12-11T06:02:13.964Z,7.78
2022-12-11T06:04:40.600Z,7.95
2022-12-11T06:07:07.146Z,8.00
2022-12-11T06:09:33.725Z,7.57
2022-12-11T06:12:00.251Z,7.95
2022-12-11T06:14:27.070Z,8.23
2022-12-11T06:16:53.618Z,10.23
2022-12-11T06:19:20.327Z,18.95
2022-12-11T06:21:48.970Z,9.97
2022-12-11T06:24:15.624Z,8.98
2022-12-11T06:26:42.214Z,8.23
2022-12-11T06:29:12.502Z,8.65
2022-12-11T06:31:39.690Z,7.57
2022-12-11T06:34:06.395Z,8.60
2022-12-11T06:36:32.996Z,7.53
2022-12-11T06:39:00.840Z,8.05
2022-12-11T06:41:27.474Z,8.18
2022-12-11T06:43:54.027Z,8.18
2022-12-11T06:46:20.846Z,7.43
2022-12-11T06:48:48.713Z,8.50
2022-12-11T06:51:18.336Z,8.30
2022-12-11T06:53:44.957Z,8.32
2022-12-11T06:56:15.161Z,8.35
2022-12-11T06:58:42.930Z,8.13
2022-12-11T07:01:16.288Z,7.93
2022-12-11T07:03:43.639Z,7.68
2022-12-11T07:06:10.289Z,7.30
2022-12-11T07:08:36.892Z,8.07
2022-12-11T07:11:06.539Z,8.60
2022-12-11T07:13:33.847Z,9.05
2022-12-11T07:16:01.987Z,9.32
2022-12-11T07:18:29.067Z,10.07
2022-12-11T07:20:58.903Z,9.18
2022-12-11T07:23:26.725Z,9.67
2022-12-11T07:25:53.768Z,10.52
2022-12-11T07:28:20.577Z,9.00
2022-12-11T07:30:47.211Z,9.95
2022-12-11T07:33:13.848Z,9.98
2022-12-11T07:35:40.438Z,9.13
2022-12-11T07:38:07.191Z,9.60
2022-12-11T07:40:34.606Z,9.90
2022-12-11T07:43:01.107Z,10.05
2022-12-11T07:45:27.861Z,9.95
2022-12-11T07:51:43.877Z,9.52
2022-12-11T07:54:52.356Z,8.77
2022-12-11T07:57:18.970Z,8.95
2022-12-11T07:59:46.790Z,9.32
2022-12-11T08:02:13.339Z,9.83
2022-12-11T08:04:40.011Z,9.30
2022-12-11T08:07:07.748Z,9.65
2022-12-11T08:09:34.371Z,9.15
2022-12-11T08:12:00.992Z,9.15
2022-12-11T08:14:27.692Z,9.23
2022-12-11T08:16:54.303Z,10.32
2022-12-11T08:19:20.990Z,9.55
2022-12-11T08:21:47.566Z,9.15
2022-12-11T08:24:16.392Z,9.15
2022-12-11T08:26:42.962Z,9.77
2022-12-11T08:29:10.114Z,8.75
2022-12-11T08:31:36.839Z,9.35
2022-12-11T08:34:03.500Z,10.07
2022-12-11T08:36:30.121Z,9.38
2022-12-11T08:38:57.236Z,10.03
2022-12-11T08:41:26.749Z,9.52
2022-12-11T08:43:55.135Z,17.70
2022-12-11T08:46:24.527Z,12.63
2022-12-11T08:48:51.832Z,10.98
2022-12-11T08:51:22.430Z,10.03
2022-12-11T08:53:50.324Z,9.63
2022-12-11T08:56:20.475Z,8.90
2022-12-11T08:58:47.963Z,9.40
2022-12-11T09:01:21.807Z,9.02
2022-12-11T09:03:50.276Z,8.13
2022-12-11T09:06:20.218Z,8.80
2022-12-11T09:08:52.164Z,8.40
2022-12-11T09:11:21.975Z,7.85
2022-12-11T09:13:48.702Z,7.50
2022-12-11T09:16:19.489Z,8.63
2022-12-11T09:18:48.601Z,8.02
2022-12-11T09:21:17.226Z,8.60
2022-12-11T09:23:43.840Z,8.10
2022-12-11T09:26:13.762Z,8.40
2022-12-11T09:28:46.171Z,8.53
2022-12-11T09:31:23.811Z,8.25
2022-12-11T09:33:52.102Z,8.68
2022-12-11T09:36:19.055Z,8.48
2022-12-11T09:38:46.282Z,8.35
2022-12-11T09:41:25.363Z,9.80
2022-12-11T09:44:00.543Z,8.60
2022-12-11T09:46:33.808Z,8.55
2022-12-11T09:55:28.459Z,8.20
2022-12-11T10:00:45.914Z,9.23
2022-12-11T10:03:35.051Z,8.93
2022-12-11T10:06:14.553Z,7.93
2022-12-11T10:08:54.736Z,7.67
2022-12-11T10:11:42.527Z,9.32
2022-12-11T10:14:30.337Z,8.13
2022-12-11T10:17:04.096Z,8.93
2022-12-11T10:19:32.713Z,8.48
2022-12-11T10:22:01.068Z,8.83
2022-12-11T10:25:10.116Z,8.23
2022-12-11T10:27:32.010Z,7.88
2022-12-11T10:30:08.593Z,8.63
2022-12-11T10:32:40.009Z,8.00
2022-12-11T10:35:07.319Z,8.67
2022-12-11T10:37:33.899Z,7.70
2022-12-11T10:40:08.341Z,8.77
2022-12-11T10:42:58.493Z,8.35
2022-12-11T10:45:25.072Z,7.85
2022-12-11T10:48:02.590Z,7.60
2022-12-11T10:50:29.387Z,7.95
2022-12-11T10:52:55.948Z,7.78
2022-12-11T10:55:29.608Z,7.55
2022-12-11T11:01:32.179Z,7.10
2022-12-11T11:04:14.458Z,7.15
2022-12-11T11:10:03.256Z,7.60
2022-12-11T11:12:31.574Z,7.85
2022-12-11T11:15:19.930Z,7.20
2022-12-11T11:17:55.818Z,7.03
2022-12-11T11:20:27.733Z,7.32
2022-12-11T11:23:02.673Z,8.13
2022-12-11T11:25:35.479Z,7.15
2022-12-11T11:28:06.084Z,7.03
2022-12-11T11:30:37.321Z,6.63
2022-12-11T11:33:12.458Z,6.72
2022-12-11T11:35:45.505Z,7.18
2022-12-11T11:38:24.784Z,6.90
2022-12-11T11:41:07.573Z,6.50
2022-12-11T11:43:48.532Z,6.63
2022-12-11T11:46:16.440Z,7.03
2022-12-11T11:48:52.442Z,7.15
2022-12-11T11:51:28.400Z,7.22
2022-12-11T11:54:00.596Z,6.60
2022-12-11T11:56:37.999Z,5.53
2022-12-11T11:59:38.533Z,6.70
2022-12-11T12:02:19.373Z,5.88
2022-12-11T12:04:52.191Z,6.35
2022-12-11T12:07:51.251Z,6.57
2022-12-11T12:10:27.505Z,6.18
2022-12-11T12:13:23.831Z,6.43
2022-12-11T12:16:02.124Z,6.32
2022-12-11T12:21:25.562Z,6.20
2022-12-11T12:23:53.027Z,6.03
2022-12-11T12:26:31.692Z,6.38
2022-12-11T12:29:23.456Z,6.18
2022-12-11T12:31:50.290Z,5.97
2022-12-11T12:34:31.502Z,6.13
2022-12-11T12:37:06.118Z,5.82
2022-12-11T12:39:49.237Z,6.70
2022-12-11T12:42:37.468Z,6.40
2022-12-11T12:45:13.640Z,6.10
2022-12-11T12:47:43.424Z,6.23
2022-12-11T12:50:15.265Z,6.32
2022-12-11T12:52:42.615Z,5.95
2022-12-11T12:55:31.875Z,6.30
2022-12-11T12:58:03.253Z,6.10
2022-12-11T13:00:41.176Z,5.90
2022-12-11T13:03:18.506Z,6.78
2022-12-11T13:06:06.148Z,6.18
2022-12-11T13:08:46.341Z,7.05
2022-12-11T13:11:16.045Z,6.60
2022-12-11T13:13:54.479Z,7.00
2022-12-11T13:16:25.721Z,6.50
2022-12-11T13:18:53.610Z,7.20
2022-12-11T13:21:37.903Z,7.25
2022-12-11T13:24:13.539Z,6.90
2022-12-11T13:26:41.150Z,10.33
2022-12-11T13:29:31.658Z,8.15
2022-12-11T13:32:02.028Z,6.82
2022-12-11T13:34:33.818Z,7.97
2022-12-11T13:37:03.021Z,6.45
2022-12-11T13:39:32.361Z,7.50
2022-12-11T13:42:02.490Z,7.72
2022-12-11T13:44:34.367Z,6.35
2022-12-11T13:47:04.193Z,7.00
2022-12-11T13:49:36.878Z,8.10
2022-12-11T13:52:04.932Z,7.87
2022-12-11T13:54:36.017Z,8.15
2022-12-11T13:57:17.998Z,7.43
2022-12-11T13:59:53.160Z,8.75
2022-12-11T14:02:25.444Z,7.80
2022-12-11T14:04:56.106Z,6.97
2022-12-11T14:07:30.672Z,7.20
2022-12-11T14:10:02.654Z,8.55
2022-12-11T14:12:30.778Z,7.80
2022-12-11T14:14:59.882Z,8.52
2022-12-11T14:17:29.726Z,9.20
2022-12-11T14:19:59.306Z,8.10
2022-12-11T14:22:28.316Z,7.93
2022-12-11T14:24:58.383Z,8.10
2022-12-11T14:27:27.406Z,8.75
2022-12-11T14:29:54.282Z,8.00
2022-12-11T14:32:32.552Z,8.27
2022-12-11T14:35:04.275Z,7.97
2022-12-11T14:37:31.939Z,8.13
2022-12-11T14:40:08.232Z,8.20
2022-12-11T14:42:41.037Z,8.13
2022-12-11T14:45:14.332Z,7.57
2022-12-11T14:47:43.345Z,7.88
2022-12-11T14:50:19.968Z,8.73
2022-12-11T14:52:50.947Z,8.85
2022-12-11T14:55:25.877Z,9.07
2022-12-11T14:57:57.736Z,8.45
2022-12-11T15:00:28.487Z,9.02
2022-12-11T15:03:02.495Z,8.75
2022-12-11T15:05:30.141Z,8.70
2022-12-11T15:08:04.015Z,8.87
2022-12-11T15:10:37.140Z,9.10
2022-12-11T15:13:06.418Z,8.32
2022-12-11T15:15:44.937Z,8.13
2022-12-11T15:18:22.628Z,9.13
2022-12-11T15:20:54.821Z,8.73
2022-12-11T15:23:21.583Z,8.65
2022-12-11T15:25:58.036Z,8.98
2022-12-11T15:28:30.334Z,8.75
2022-12-11T15:31:02.218Z,8.00
2022-12-11T15:33:34.065Z,8.90
2022-12-11T15:36:05.364Z,8.93
2022-12-11T15:38:40.587Z,8.57
2022-12-11T15:41:14.733Z,8.85
2022-12-11T15:43:41.635Z,8.30
2022-12-11T15:46:08.326Z,9.90
2022-12-11T15:48:42.091Z,8.35
2022-12-11T15:51:09.759Z,8.68
2022-12-11T15:53:36.400Z,9.20
2022-12-11T15:56:03.299Z,8.63
2022-12-11T15:58:30.209Z,9.03
2022-12-11T16:00:57.857Z,8.65
2022-12-11T16:03:26.107Z,8.38
2022-12-11T16:05:53.430Z,8.90
2022-12-11T16:08:22.759Z,8.88
2022-12-11T16:10:53.287Z,8.83
2022-12-11T16:13:20.127Z,8.13
2022-12-11T16:15:48.800Z,9.20
2022-12-11T16:18:20.512Z,9.75
2022-12-11T16:20:48.367Z,9.50
2022-12-11T16:23:16.419Z,8.80
2022-12-11T16:25:45.717Z,8.18
2022-12-11T16:28:15.455Z,8.68
2022-12-11T16:30:43.742Z,8.07
2022-12-11T16:33:13.271Z,8.30
2022-12-11T16:35:42.027Z,9.70
2022-12-11T16:38:12.243Z,8.85
2022-12-11T16:40:39.020Z,8.98
2022-12-11T16:43:05.884Z,8.90
2022-12-11T16:45:33.536Z,8.95
2022-12-11T16:48:03.538Z,8.13
2022-12-11T16:50:30.185Z,8.88
2022-12-11T16:52:57.150Z,9.55
2022-12-11T16:55:23.856Z,8.48
2022-12-11T16:57:50.461Z,8.50
2022-12-11T17:00:17.443Z,10.20
2022-12-11T17:02:44.143Z,8.43
2022-12-11T17:05:11.215Z,8.75
2022-12-11T17:07:38.079Z,9.07
2022-12-11T17:10:07.060Z,9.45
2022-12-11T17:12:33.662Z,9.33
2022-12-11T17:15:05.193Z,8.95
2022-12-11T17:17:31.832Z,9.63
2022-12-11T17:19:58.653Z,8.57
2022-12-11T17:22:25.519Z,9.18
2022-12-11T17:24:52.150Z,8.37
2022-12-11T17:27:18.784Z,8.70
2022-12-11T17:29:45.483Z,8.05
2022-12-11T17:32:12.112Z,8.00
2022-12-11T17:34:38.915Z,8.43
2022-12-11T17:37:06.146Z,7.53
2022-12-11T17:39:32.941Z,7.78
2022-12-11T17:41:59.726Z,8.02
2022-12-11T17:44:30.322Z,8.90
2022-12-11T17:46:58.135Z,8.23
2022-12-11T17:49:24.906Z,8.20
2022-12-11T17:51:53.213Z,8.15
2022-12-11T17:54:20.155Z,7.30
2022-12-11T17:56:46.946Z,7.65
2022-12-11T17:59:13.623Z,8.00
2022-12-11T18:01:40.322Z,6.67
2022-12-11T18:04:06.976Z,7.63
2022-12-11T18:06:33.705Z,7.25
2022-12-11T18:09:01.467Z,7.15
2022-12-11T18:11:28.148Z,7.07
2022-12-11T18:13:55.034Z,8.00
2022-12-11T18:16:27.343Z,7.50
2022-12-11T18:18:54.382Z,7.50
2022-12-11T18:21:27.703Z,7.85
2022-12-11T18:23:54.955Z,7.30
2022-12-11T18:26:22.299Z,7.77
2022-12-11T18:28:52.430Z,7.53
2022-12-11T18:31:20.970Z,8.00
2022-12-11T18:33:48.563Z,10.15
2022-12-11T18:36:16.734Z,7.65
2022-12-11T18:38:47.079Z,8.27
2022-12-11T18:41:16.058Z,8.45
2022-12-11T18:43:42.798Z,8.60
2022-12-11T18:46:12.675Z,8.05
2022-12-11T18:48:39.899Z,7.20
2022-12-11T18:51:09.691Z,7.80
2022-12-11T18:53:39.156Z,8.07
2022-12-11T18:56:12.852Z,8.43
2022-12-11T18:58:39.847Z,7.95
2022-12-11T19:01:09.540Z,7.45
2022-12-11T19:03:36.884Z,7.00
2022-12-11T19:06:13.186Z,7.00
2022-12-11T19:08:40.215Z,6.03
2022-12-11T19:11:07.404Z,6.75
2022-12-11T19:13:34.672Z,6.55
2022-12-11T19:16:01.819Z,6.80
2022-12-11T19:18:28.509Z,6.70
2022-12-11T19:21:04.871Z,6.38
2022-12-11T19:23:35.196Z,6.35
2022-12-11T19:26:02.401Z,7.28
2022-12-11T19:28:29.297Z,6.97
2022-12-11T19:30:56.058Z,6.68
2022-12-11T19:33:22.840Z,7.03
2022-12-11T19:35:49.544Z,6.93
2022-12-11T19:38:16.187Z,6.13
2022-12-11T19:40:44.397Z,6.50
2022-12-11T19:43:11.730Z,6.65
2022-12-11T19:45:38.621Z,6.93
2022-12-11T19:48:05.764Z,6.57
2022-12-11T19:50:34.493Z,6.40
2022-12-11T19:53:01.192Z,6.53
2022-12-11T19:55:27.834Z,6.95
2022-12-11T19:57:55.454Z,6.57
2022-12-11T20:00:22.163Z,6.20
2022-12-11T20:02:49.161Z,5.93
2022-12-11T20:05:16.184Z,5.90
2022-12-11T20:07:44.706Z,7.28
2022-12-11T20:10:11.634Z,12.30
2022-12-11T20:12:38.277Z,11.70
2022-12-11T20:15:06.155Z,12.35
2022-12-11T20:17:33.474Z,17.37
2022-12-11T20:20:00.450Z,14.57
2022-12-11T20:22:27.225Z,8.65
2022-12-11T20:24:53.815Z,7.38
2022-12-11T20:27:20.416Z,6.60
2022-12-11T20:29:47.008Z,6.87
2022-12-11T20:32:15.737Z,7.82
2022-12-11T20:34:44.694Z,7.75
2022-12-11T20:37:11.343Z,7.95
2022-12-11T20:39:38.026Z,9.23
2022-12-11T20:42:05.804Z,7.57
2022-12-11T20:44:32.736Z,6.95
2022-12-11T20:46:59.371Z,7.07
2022-12-11T20:49:26.167Z,6.68
2022-12-11T20:51:52.959Z,6.63
2022-12-11T20:54:19.559Z,7.37
2022-12-11T20:56:46.308Z,6.65
2022-12-11T20:59:13.321Z,6.93
2022-12-11T21:01:40.825Z,6.93
2022-12-11T21:04:07.575Z,7.18
2022-12-11T21:06:36.471Z,7.93
2022-12-11T21:09:09.399Z,7.72
2022-12-11T21:11:36.033Z,8.43
2022-12-11T21:14:02.808Z,7.90
2022-12-11T21:16:29.550Z,7.07
2022-12-11T21:18:57.705Z,7.30
2022-12-11T21:21:25.249Z,7.65
2022-12-11T21:23:52.068Z,7.72
2022-12-11T21:26:19.313Z,7.25
2022-12-11T21:28:45.861Z,7.40
2022-12-11T21:31:15.189Z,6.97
2022-12-11T21:33:42.957Z,7.57
2022-12-11T21:39:02.875Z,6.60
2022-12-11T21:41:29.461Z,6.50
2022-12-11T21:45:14.528Z,6.20
2022-12-11T21:46:43.634Z,9.25
2022-12-11T21:49:10.342Z,8.32
2022-12-11T21:51:43.982Z,7.65
2022-12-11T21:54:16.721Z,7.75
2022-12-11T21:56:43.798Z,7.17
2022-12-11T21:59:10.472Z,7.10
2022-12-11T22:01:42.115Z,6.75
2022-12-11T22:04:10.808Z,7.20
2022-12-11T22:06:37.517Z,8.05
2022-12-11T22:09:05.185Z,8.30
2022-12-11T22:11:32.882Z,7.80
2022-12-11T22:13:59.481Z,7.57
2022-12-11T22:16:26.350Z,8.15
2022-12-11T22:18:53.462Z,8.65
2022-12-11T22:21:20.086Z,7.03
2022-12-11T22:23:47.817Z,8.50
2022-12-11T22:26:19.305Z,7.50
2022-12-11T22:28:46.079Z,7.20
2022-12-11T22:31:15.304Z,7.50
2022-12-11T22:33:42.487Z,6.80
2022-12-11T22:36:10.415Z,6.97
2022-12-11T22:38:37.139Z,6.88
2022-12-11T22:41:18.960Z,6.82
2022-12-11T22:43:48.840Z,6.88
2022-12-11T22:46:17.260Z,6.70
2022-12-11T22:48:44.025Z,7.10
2022-12-11T22:51:10.839Z,7.25
2022-12-11T22:53:37.598Z,6.93
2022-12-11T22:56:06.046Z,7.40
2022-12-11T22:58:33.378Z,6.13
2022-12-11T23:01:00.865Z,6.28
2022-12-11T23:03:27.818Z,6.60
2022-12-11T23:05:54.940Z,6.85
2022-12-11T23:08:21.713Z,6.55
2022-12-11T23:10:48.638Z,7.20
2022-12-11T23:13:15.247Z,6.60
2022-12-11T23:15:41.776Z,6.18
2022-12-11T23:18:08.372Z,7.60
2022-12-11T23:20:34.927Z,7.40
2022-12-11T23:23:01.717Z,6.83
2022-12-11T23:25:29.829Z,6.93
2022-12-11T23:27:56.466Z,7.25
2022-12-11T23:30:23.999Z,6.78
2022-12-11T23:32:50.688Z,6.88
2022-12-11T23:35:17.435Z,7.07
2022-12-11T23:37:43.994Z,6.82
2022-12-11T23:40:11.425Z,7.30
2022-12-11T23:42:38.000Z,6.43
2022-12-11T23:45:04.962Z,7.10
2022-12-11T23:47:31.533Z,7.67
2022-12-11T23:49:58.361Z,7.20
2022-12-11T23:52:26.628Z,7.07
2022-12-11T23:54:55.327Z,7.32
2022-12-11T23:57:22.051Z,7.75
2022-12-11T23:59:48.597Z,7.47
